Pagrindinis puslapis
METAR-TAF:

METAR-TAF

Oro uostai :

Dhahran, Saudo Arabija

platuma: 26-16N, ilguma: 050-09E, Aukštis: 26 m

Dabartinis oras

Ataskaita buvo paskelbta 59 minutes, ne 14:00 UTC
Vėjas 10 kt iš Šiaurės Rytų
Temperatūra 17°C
Drėgmė 27%
Slėgis 1021 hPa
Matomumas 10 km arba daugiau
nėra debesų žemiau 1500 m ir nėra kamuolinių lietaus debesų

METAR: OEDR 271400Z 05010KT CAVOK 17/M02 Q1021 NOSIG

Laikas: 17:59 (14:59 UTC)

Prognozė

Ataskaita buvo paskelbta 5 valandos ir 59 minutes, ne 09:00 UTC
Prognozė galioja nuo 27 metu 12 UTC su 28 metu 18 UTC
Vėjas 12 kt iš Šiaurės Vakarų
Matomumas: 8000 m

TAF: OEDR 270900Z 2712/2818 32012KT 8000 NSC

Orai ataskaitas ir orų prognozės (METAR, TAF).

turimą stotys yra geltonos ir raudonos taškus žemėlapyje.

Perkelti pele per norėdami pamatyti stoties vardą.

Tada spustelėkite, norėdami matyti oro stebėjimo ir prognozės.

Norėdami pakeisti žemėlapį: spustelėkite ant žalios mygtukų su juodo kryžiaus žemyn,; žalią mygtuką su brūkšneliu, jei norite nutolinti; arba žalių rodyklių gretimoms žemėlapius.


METAR-TAF: